AAL2777 KORD-KEYW
Flight info
| Callsign | AAL2777 |
|---|---|
| Flight time | N/A |
| Altitude | 39000 |
| Route | DENNT DARCY DREGS DUMGE SCOTO SWAPP LUCKK/N0435F380 HONID/N0432F370 Q81 BULZI KRAKN1 |
| Aircraft | A319/M-SDE3FGHIRWY/LB1 |
Departure
| Time | 2026-05-04 21:57 |
|---|---|
| Airport | Chicago O'Hare International Airport (KORD) |
Arrival
| Time | N/A |
|---|---|
| Airport | Key West International Airport (KEYW) |
| Time | Latitude | Longitude | Altitude | Speed | Heading |
|---|---|---|---|---|---|
| 2026-05-04 21:40 | 41.97412 | -87.89774 | 669 ft | 0 kts | 37° |
| 2026-05-04 21:47 | 41.97395 | -87.89793 | 666 ft | 4 kts | 51° |
| 2026-05-04 21:47 | 41.97383 | -87.89823 | 667 ft | 4 kts | 84° |
| 2026-05-04 21:47 | 41.97387 | -87.89857 | 666 ft | 4 kts | 131° |
| 2026-05-04 21:48 | 41.97393 | -87.89865 | 668 ft | 2 kts | 146° |
| 2026-05-04 21:48 | 41.97372 | -87.89846 | 667 ft | 4 kts | 146° |
| 2026-05-04 21:48 | 41.97352 | -87.89828 | 667 ft | 1 kts | 146° |
| 2026-05-04 21:50 | 41.97344 | -87.89821 | 669 ft | 2 kts | 146° |
| 2026-05-04 21:51 | 41.97342 | -87.89819 | 669 ft | 0 kts | 146° |
| 2026-05-04 21:51 | 41.97341 | -87.89818 | 669 ft | 0 kts | 146° |
| 2026-05-04 21:52 | 41.97340 | -87.89818 | 669 ft | 0 kts | 146° |
| 2026-05-04 21:52 | 41.97331 | -87.89810 | 667 ft | 5 kts | 146° |
| 2026-05-04 21:52 | 41.97295 | -87.89777 | 669 ft | 8 kts | 147° |
| 2026-05-04 21:52 | 41.97284 | -87.89702 | 669 ft | 12 kts | 62° |
| 2026-05-04 21:53 | 41.97283 | -87.89591 | 667 ft | 14 kts | 141° |
| 2026-05-04 21:53 | 41.97206 | -87.89509 | 669 ft | 14 kts | 122° |
| 2026-05-04 21:53 | 41.97197 | -87.89373 | 669 ft | 15 kts | 91° |
| 2026-05-04 21:53 | 41.97195 | -87.89225 | 669 ft | 16 kts | 90° |
| 2026-05-04 21:54 | 41.97194 | -87.89068 | 669 ft | 17 kts | 90° |
| 2026-05-04 21:54 | 41.97195 | -87.88904 | 669 ft | 18 kts | 89° |
| 2026-05-04 21:54 | 41.97195 | -87.88732 | 669 ft | 19 kts | 90° |
| 2026-05-04 21:54 | 41.97196 | -87.88551 | 669 ft | 20 kts | 90° |
| 2026-05-04 21:55 | 41.97196 | -87.88362 | 669 ft | 21 kts | 90° |
| 2026-05-04 21:55 | 41.97196 | -87.88163 | 669 ft | 22 kts | 90° |
| 2026-05-04 21:55 | 41.97180 | -87.88041 | 667 ft | 10 kts | 156° |
| 2026-05-04 21:55 | 41.97100 | -87.88036 | 670 ft | 15 kts | 180° |
| 2026-05-04 21:56 | 41.97002 | -87.88021 | 671 ft | 12 kts | 140° |
| 2026-05-04 21:56 | 41.96939 | -87.88037 | 669 ft | 13 kts | 223° |
| 2026-05-04 21:56 | 41.96747 | -87.88268 | 669 ft | 72 kts | 221° |
| 2026-05-04 21:56 | 41.96202 | -87.88913 | 673 ft | 133 kts | 221° |
| 2026-05-04 21:57 | 41.95478 | -87.89772 | 1199 ft | 139 kts | 224° |
| 2026-05-04 21:57 | 41.94756 | -87.90651 | 1911 ft | 140 kts | 226° |
| 2026-05-04 21:57 | 41.93985 | -87.91471 | 2570 ft | 148 kts | 211° |
| 2026-05-04 21:57 | 41.92863 | -87.91623 | 2972 ft | 184 kts | 176° |
| 2026-05-04 21:58 | 41.91538 | -87.91071 | 3344 ft | 213 kts | 167° |
| 2026-05-04 21:58 | 41.90059 | -87.90364 | 3822 ft | 238 kts | 166° |
| 2026-05-04 21:58 | 41.88427 | -87.89645 | 4360 ft | 261 kts | 169° |
| 2026-05-04 21:58 | 41.86632 | -87.88957 | 4859 ft | 273 kts | 170° |
| 2026-05-04 21:59 | 41.84800 | -87.88285 | 5037 ft | 273 kts | 170° |
| 2026-05-04 21:59 | 41.82934 | -87.87613 | 5779 ft | 279 kts | 170° |
| 2026-05-04 21:59 | 41.81061 | -87.86933 | 6870 ft | 281 kts | 169° |
| 2026-05-04 21:59 | 41.79165 | -87.86241 | 7860 ft | 284 kts | 170° |
| 2026-05-04 22:00 | 41.77242 | -87.85536 | 8803 ft | 289 kts | 169° |
| 2026-05-04 22:00 | 41.75291 | -87.84814 | 9725 ft | 294 kts | 169° |
| 2026-05-04 22:00 | 41.73279 | -87.84069 | 10418 ft | 309 kts | 169° |
| 2026-05-04 22:00 | 41.71126 | -87.83281 | 10959 ft | 330 kts | 170° |
| 2026-05-04 22:01 | 41.68873 | -87.82452 | 11808 ft | 340 kts | 170° |
| 2026-05-04 22:01 | 41.66582 | -87.81602 | 12667 ft | 345 kts | 170° |
| 2026-05-04 22:01 | 41.64255 | -87.80736 | 13483 ft | 349 kts | 171° |
| 2026-05-04 22:01 | 41.61900 | -87.79861 | 14214 ft | 353 kts | 171° |
| 2026-05-04 22:02 | 41.59521 | -87.78980 | 14970 ft | 357 kts | 171° |
| 2026-05-04 22:02 | 41.57112 | -87.78089 | 15720 ft | 361 kts | 171° |
| 2026-05-04 22:02 | 41.54678 | -87.77187 | 16444 ft | 365 kts | 170° |
| 2026-05-04 22:02 | 41.52225 | -87.76277 | 17184 ft | 369 kts | 170° |
| 2026-05-04 22:03 | 41.49734 | -87.75359 | 17909 ft | 373 kts | 170° |
| 2026-05-04 22:03 | 41.47220 | -87.74437 | 18533 ft | 377 kts | 170° |
| 2026-05-04 22:03 | 41.44677 | -87.73504 | 19167 ft | 381 kts | 170° |
| 2026-05-04 22:03 | 41.42094 | -87.72703 | 19792 ft | 380 kts | 177° |
| 2026-05-04 22:04 | 41.39464 | -87.72475 | 20413 ft | 378 kts | 185° |
| 2026-05-04 22:04 | 41.36824 | -87.72492 | 21041 ft | 381 kts | 185° |
| 2026-05-04 22:04 | 41.34162 | -87.72509 | 21675 ft | 385 kts | 185° |
| 2026-05-04 22:04 | 41.31474 | -87.72526 | 22284 ft | 388 kts | 185° |
| 2026-05-04 22:05 | 41.28761 | -87.72543 | 22925 ft | 392 kts | 185° |
| 2026-05-04 22:05 | 41.26020 | -87.72560 | 23482 ft | 395 kts | 185° |
| 2026-05-04 22:05 | 41.23292 | -87.72577 | 23991 ft | 398 kts | 185° |
| 2026-05-04 22:05 | 41.20511 | -87.72580 | 24485 ft | 402 kts | 182° |
| 2026-05-04 22:06 | 41.17706 | -87.72262 | 24977 ft | 407 kts | 178° |
| 2026-05-04 22:06 | 41.14876 | -87.71874 | 25461 ft | 409 kts | 178° |
| 2026-05-04 22:06 | 41.12037 | -87.71483 | 25935 ft | 412 kts | 178° |
| 2026-05-04 22:06 | 41.09176 | -87.71088 | 26415 ft | 414 kts | 178° |
| 2026-05-04 22:07 | 41.06301 | -87.70696 | 26879 ft | 417 kts | 178° |
| 2026-05-04 22:07 | 41.03408 | -87.70308 | 27331 ft | 419 kts | 178° |
| 2026-05-04 22:07 | 41.00495 | -87.69918 | 27788 ft | 422 kts | 178° |
| 2026-05-04 22:07 | 40.97560 | -87.69526 | 28242 ft | 424 kts | 178° |
| 2026-05-04 22:08 | 40.94611 | -87.69130 | 28692 ft | 427 kts | 178° |
| 2026-05-04 22:08 | 40.91651 | -87.68731 | 29126 ft | 430 kts | 178° |
| 2026-05-04 22:08 | 40.88661 | -87.68329 | 29559 ft | 432 kts | 179° |
| 2026-05-04 22:08 | 40.85662 | -87.67928 | 29949 ft | 435 kts | 179° |
| 2026-05-04 22:09 | 40.82651 | -87.67529 | 30295 ft | 437 kts | 178° |
| 2026-05-04 22:09 | 40.79608 | -87.67125 | 30639 ft | 440 kts | 179° |
| 2026-05-04 22:09 | 40.76582 | -87.66723 | 30976 ft | 442 kts | 179° |
| 2026-05-04 22:09 | 40.73510 | -87.66313 | 31309 ft | 444 kts | 179° |
| 2026-05-04 22:10 | 40.70436 | -87.65901 | 31735 ft | 444 kts | 179° |
| 2026-05-04 22:10 | 40.67371 | -87.65488 | 32218 ft | 442 kts | 179° |
| 2026-05-04 22:10 | 40.64313 | -87.65077 | 32708 ft | 441 kts | 179° |
| 2026-05-04 22:10 | 40.61263 | -87.64668 | 33196 ft | 439 kts | 179° |
| 2026-05-04 22:11 | 40.58225 | -87.64262 | 33692 ft | 438 kts | 179° |
| 2026-05-04 22:11 | 40.55198 | -87.63859 | 34113 ft | 437 kts | 179° |
| 2026-05-04 22:11 | 40.52180 | -87.63457 | 34500 ft | 436 kts | 179° |
| 2026-05-04 22:11 | 40.49160 | -87.63054 | 34862 ft | 436 kts | 179° |
| 2026-05-04 22:12 | 40.46142 | -87.62650 | 35219 ft | 436 kts | 179° |
| 2026-05-04 22:12 | 40.43120 | -87.62249 | 35557 ft | 436 kts | 179° |
| 2026-05-04 22:12 | 40.40105 | -87.61855 | 35906 ft | 435 kts | 179° |
| 2026-05-04 22:12 | 40.37108 | -87.61464 | 36234 ft | 435 kts | 179° |
| 2026-05-04 22:13 | 40.34081 | -87.61033 | 36544 ft | 438 kts | 175° |
| 2026-05-04 22:13 | 40.31096 | -87.60120 | 36831 ft | 444 kts | 166° |
| 2026-05-04 22:13 | 40.28219 | -87.58583 | 37130 ft | 449 kts | 158° |
| 2026-05-04 22:13 | 40.25407 | -87.56782 | 37436 ft | 450 kts | 158° |
| 2026-05-04 22:14 | 40.22599 | -87.54984 | 37755 ft | 450 kts | 158° |
| 2026-05-04 22:14 | 40.19788 | -87.53192 | 38060 ft | 449 kts | 158° |
| 2026-05-04 22:14 | 40.16980 | -87.51410 | 38367 ft | 449 kts | 158° |
| 2026-05-04 22:14 | 40.14163 | -87.49629 | 38611 ft | 449 kts | 158° |
| 2026-05-04 22:15 | 40.11344 | -87.47852 | 38714 ft | 451 kts | 158° |
| 2026-05-04 22:15 | 40.05678 | -87.44277 | 38746 ft | 453 kts | 158° |
| 2026-05-04 22:16 | 39.99991 | -87.40696 | 38762 ft | 455 kts | 158° |
| 2026-05-04 22:16 | 39.94303 | -87.37029 | 38775 ft | 458 kts | 156° |
| 2026-05-04 22:17 | 39.88639 | -87.33172 | 38785 ft | 460 kts | 156° |
| 2026-05-04 22:17 | 39.82966 | -87.29294 | 38785 ft | 461 kts | 156° |
| 2026-05-04 22:18 | 39.77279 | -87.25459 | 38786 ft | 461 kts | 156° |
| 2026-05-04 22:18 | 39.71613 | -87.21679 | 38778 ft | 461 kts | 157° |
| 2026-05-04 22:19 | 39.66161 | -87.18057 | 38774 ft | 461 kts | 157° |
| 2026-05-04 22:19 | 39.60447 | -87.14256 | 38760 ft | 462 kts | 157° |
| 2026-05-04 22:20 | 39.54736 | -87.10453 | 38760 ft | 462 kts | 157° |
| 2026-05-04 22:20 | 39.49025 | -87.06653 | 38764 ft | 461 kts | 157° |
| 2026-05-04 22:21 | 39.43316 | -87.02871 | 38776 ft | 461 kts | 157° |
| 2026-05-04 22:21 | 39.37609 | -86.99098 | 38783 ft | 460 kts | 157° |
| 2026-05-04 22:22 | 39.31910 | -86.95335 | 38789 ft | 460 kts | 157° |
| 2026-05-04 22:22 | 39.26215 | -86.91583 | 38795 ft | 460 kts | 157° |
| 2026-05-04 22:23 | 39.20516 | -86.87841 | 38803 ft | 460 kts | 157° |
| 2026-05-04 22:23 | 39.14806 | -86.84089 | 38799 ft | 460 kts | 156° |
| 2026-05-04 22:24 | 39.09136 | -86.80250 | 38802 ft | 461 kts | 156° |
| 2026-05-04 22:24 | 39.03478 | -86.76353 | 38798 ft | 461 kts | 156° |
| 2026-05-04 22:25 | 38.98764 | -86.73133 | 38800 ft | 462 kts | 156° |
| 2026-05-04 22:25 | 38.92207 | -86.68708 | 38801 ft | 462 kts | 156° |
| 2026-05-04 22:26 | 38.86510 | -86.64874 | 38808 ft | 463 kts | 156° |
| 2026-05-04 22:26 | 38.80802 | -86.61025 | 38806 ft | 463 kts | 156° |
| 2026-05-04 22:27 | 38.75094 | -86.57186 | 38806 ft | 463 kts | 157° |
| 2026-05-04 22:27 | 38.70347 | -86.54002 | 38804 ft | 463 kts | 157° |
| 2026-05-04 22:28 | 38.64640 | -86.50177 | 38818 ft | 464 kts | 157° |
| 2026-05-04 22:28 | 38.58921 | -86.46345 | 38817 ft | 464 kts | 157° |
| 2026-05-04 22:29 | 38.53198 | -86.42519 | 38824 ft | 464 kts | 157° |
| 2026-05-04 22:29 | 38.47475 | -86.38704 | 38824 ft | 464 kts | 157° |
| 2026-05-04 22:30 | 38.41753 | -86.34887 | 38828 ft | 464 kts | 157° |
| 2026-05-04 22:30 | 38.36031 | -86.31082 | 38828 ft | 464 kts | 158° |
| 2026-05-04 22:31 | 38.30292 | -86.27287 | 38838 ft | 465 kts | 158° |
| 2026-05-04 22:31 | 38.24702 | -86.23586 | 38840 ft | 465 kts | 158° |
| 2026-05-04 22:32 | 38.18968 | -86.19791 | 38842 ft | 465 kts | 158° |
| 2026-05-04 22:32 | 38.13223 | -86.16004 | 38848 ft | 465 kts | 158° |
| 2026-05-04 22:33 | 38.07511 | -86.12248 | 38855 ft | 466 kts | 158° |
| 2026-05-04 22:33 | 38.01755 | -86.08469 | 38854 ft | 466 kts | 158° |
| 2026-05-04 22:34 | 37.95996 | -86.04690 | 38858 ft | 466 kts | 158° |
| 2026-05-04 22:34 | 37.90229 | -86.00911 | 38854 ft | 466 kts | 158° |
| 2026-05-04 22:35 | 37.84464 | -85.97142 | 38857 ft | 466 kts | 158° |
| 2026-05-04 22:35 | 37.78696 | -85.93385 | 38884 ft | 467 kts | 158° |
| 2026-05-04 22:36 | 37.72919 | -85.89626 | 38894 ft | 467 kts | 158° |
| 2026-05-04 22:36 | 37.67149 | -85.85867 | 38900 ft | 467 kts | 158° |
| 2026-05-04 22:37 | 37.61378 | -85.82116 | 38894 ft | 467 kts | 158° |
| 2026-05-04 22:37 | 37.55600 | -85.78378 | 38895 ft | 466 kts | 158° |
| 2026-05-04 22:38 | 37.49833 | -85.74649 | 38890 ft | 466 kts | 158° |
| 2026-05-04 22:38 | 37.44093 | -85.70938 | 38884 ft | 466 kts | 158° |
| 2026-05-04 22:39 | 37.38285 | -85.67193 | 38909 ft | 466 kts | 159° |
| 2026-05-04 22:39 | 37.32517 | -85.63482 | 38919 ft | 466 kts | 159° |
| 2026-05-04 22:40 | 37.26787 | -85.59794 | 38923 ft | 466 kts | 159° |
| 2026-05-04 22:40 | 37.21020 | -85.56093 | 38926 ft | 465 kts | 159° |
| 2026-05-04 22:41 | 37.15254 | -85.52407 | 38928 ft | 465 kts | 159° |
| 2026-05-04 22:41 | 37.09490 | -85.48729 | 38922 ft | 465 kts | 159° |
| 2026-05-04 22:42 | 37.03727 | -85.45058 | 38921 ft | 465 kts | 159° |
| 2026-05-04 22:42 | 36.97960 | -85.41386 | 38921 ft | 465 kts | 159° |
| 2026-05-04 22:43 | 36.92196 | -85.37716 | 38921 ft | 465 kts | 159° |
| 2026-05-04 22:43 | 36.86440 | -85.34051 | 38929 ft | 464 kts | 159° |
| 2026-05-04 22:44 | 36.80677 | -85.30399 | 38932 ft | 464 kts | 159° |
| 2026-05-04 22:44 | 36.74927 | -85.26770 | 38937 ft | 463 kts | 159° |
| 2026-05-04 22:45 | 36.69176 | -85.23143 | 38939 ft | 463 kts | 159° |
| 2026-05-04 22:45 | 36.60431 | -85.18228 | 38951 ft | 452 kts | 172° |
| 2026-05-04 22:46 | 36.54317 | -85.16902 | 38958 ft | 445 kts | 178° |
| 2026-05-04 22:46 | 36.48202 | -85.15754 | 38953 ft | 444 kts | 178° |
| 2026-05-04 22:47 | 36.42093 | -85.14592 | 38957 ft | 444 kts | 178° |
| 2026-05-04 22:47 | 36.35992 | -85.13437 | 38960 ft | 443 kts | 178° |
| 2026-05-04 22:48 | 36.29898 | -85.12290 | 38963 ft | 443 kts | 178° |
| 2026-05-04 22:48 | 36.23809 | -85.11145 | 38976 ft | 442 kts | 178° |
| 2026-05-04 22:49 | 36.17726 | -85.10005 | 38988 ft | 442 kts | 178° |
| 2026-05-04 22:49 | 36.11649 | -85.08875 | 38988 ft | 441 kts | 178° |
| 2026-05-04 22:50 | 36.05577 | -85.07741 | 38997 ft | 441 kts | 178° |
| 2026-05-04 22:50 | 35.99513 | -85.06609 | 38992 ft | 441 kts | 178° |
| 2026-05-04 22:51 | 35.93444 | -85.05476 | 38991 ft | 441 kts | 178° |
| 2026-05-04 22:51 | 35.87381 | -85.04347 | 38989 ft | 440 kts | 178° |
| 2026-05-04 22:52 | 35.81320 | -85.03225 | 38983 ft | 440 kts | 178° |
| 2026-05-04 22:52 | 35.75258 | -85.02110 | 38973 ft | 440 kts | 178° |
| 2026-05-04 22:53 | 35.69201 | -85.00991 | 38971 ft | 440 kts | 178° |
| 2026-05-04 22:53 | 35.63144 | -84.99874 | 38962 ft | 440 kts | 178° |
| 2026-05-04 22:54 | 35.57091 | -84.98752 | 38962 ft | 440 kts | 178° |
| 2026-05-04 22:54 | 35.51030 | -84.97635 | 38963 ft | 440 kts | 178° |
| 2026-05-04 22:55 | 35.44978 | -84.96527 | 38969 ft | 440 kts | 178° |
| 2026-05-04 22:55 | 35.38966 | -84.95420 | 38969 ft | 440 kts | 178° |
| 2026-05-04 22:56 | 35.32920 | -84.94306 | 38974 ft | 440 kts | 178° |
| 2026-05-04 22:56 | 35.26872 | -84.93198 | 38975 ft | 439 kts | 178° |
| 2026-05-04 22:57 | 35.20820 | -84.92101 | 38977 ft | 439 kts | 178° |
| 2026-05-04 22:57 | 35.14776 | -84.91002 | 38979 ft | 439 kts | 178° |
| 2026-05-04 22:58 | 35.08726 | -84.89895 | 38977 ft | 439 kts | 178° |
| 2026-05-04 22:58 | 35.02682 | -84.88793 | 38981 ft | 439 kts | 178° |
| 2026-05-04 22:59 | 34.96639 | -84.87687 | 39009 ft | 439 kts | 178° |
| 2026-05-04 22:59 | 34.90592 | -84.86586 | 39019 ft | 439 kts | 178° |
| 2026-05-04 23:00 | 34.84565 | -84.85506 | 39036 ft | 438 kts | 178° |
| 2026-05-04 23:00 | 34.78566 | -84.84432 | 39040 ft | 438 kts | 178° |
| 2026-05-04 23:01 | 34.72547 | -84.83340 | 39040 ft | 437 kts | 178° |
| 2026-05-04 23:01 | 34.69534 | -84.82789 | 39040 ft | 437 kts | 178° |